sensor_id;sensor_type;location;lat;lon;timestamp;P1;durP1;ratioP1;P2;durP2;ratioP2
23543;SDS011;11950;51.230;4.012;2024-02-26T00:00:00;1.30;;;0.82;;
23543;SDS011;11950;51.230;4.012;2024-02-26T00:02:27;1.63;;;1.00;;
23543;SDS011;11950;51.230;4.012;2024-02-26T00:04:53;2.13;;;1.17;;
23543;SDS011;11950;51.230;4.012;2024-02-26T00:07:19;2.17;;;1.00;;
23543;SDS011;11950;51.230;4.012;2024-02-26T00:09:45;3.13;;;1.00;;
23543;SDS011;11950;51.230;4.012;2024-02-26T00:12:12;5.10;;;1.20;;
23543;SDS011;11950;51.230;4.012;2024-02-26T00:14:38;1.75;;;1.10;;
23543;SDS011;11950;51.230;4.012;2024-02-26T00:17:04;1.80;;;1.27;;
23543;SDS011;11950;51.230;4.012;2024-02-26T00:19:30;1.38;;;1.00;;
23543;SDS011;11950;51.230;4.012;2024-02-26T00:21:57;2.40;;;1.00;;
23543;SDS011;11950;51.230;4.012;2024-02-26T00:24:23;1.13;;;1.00;;
23543;SDS011;11950;51.230;4.012;2024-02-26T00:26:49;2.45;;;1.00;;
23543;SDS011;11950;51.230;4.012;2024-02-26T00:29:18;2.30;;;1.25;;
23543;SDS011;11950;51.230;4.012;2024-02-26T00:31:45;3.15;;;1.15;;
23543;SDS011;11950;51.230;4.012;2024-02-26T00:34:11;1.30;;;0.90;;
23543;SDS011;11950;51.230;4.012;2024-02-26T00:36:38;2.50;;;1.17;;
23543;SDS011;11950;51.230;4.012;2024-02-26T00:39:04;1.48;;;1.17;;
23543;SDS011;11950;51.230;4.012;2024-02-26T00:41:30;1.10;;;0.98;;
23543;SDS011;11950;51.230;4.012;2024-02-26T00:43:56;1.40;;;0.80;;
23543;SDS011;11950;51.230;4.012;2024-02-26T00:46:22;1.20;;;1.00;;
23543;SDS011;11950;51.230;4.012;2024-02-26T00:48:49;1.42;;;1.00;;
23543;SDS011;11950;51.230;4.012;2024-02-26T00:51:15;1.60;;;0.90;;
23543;SDS011;11950;51.230;4.012;2024-02-26T00:53:41;2.97;;;0.90;;
23543;SDS011;11950;51.230;4.012;2024-02-26T00:56:07;1.15;;;0.80;;
23543;SDS011;11950;51.230;4.012;2024-02-26T00:58:33;0.98;;;0.60;;
23543;SDS011;11950;51.230;4.012;2024-02-26T01:01:00;1.20;;;0.80;;
23543;SDS011;11950;51.230;4.012;2024-02-26T01:03:26;2.67;;;0.93;;
23543;SDS011;11950;51.230;4.012;2024-02-26T01:05:52;2.78;;;0.80;;
23543;SDS011;11950;51.230;4.012;2024-02-26T01:08:18;1.02;;;0.80;;
23543;SDS011;11950;51.230;4.012;2024-02-26T01:10:45;2.95;;;0.98;;
23543;SDS011;11950;51.230;4.012;2024-02-26T01:13:11;2.28;;;0.90;;
23543;SDS011;11950;51.230;4.012;2024-02-26T01:15:37;0.98;;;0.90;;
23543;SDS011;11950;51.230;4.012;2024-02-26T01:18:04;4.03;;;1.17;;
23543;SDS011;11950;51.230;4.012;2024-02-26T01:20:30;2.47;;;1.00;;
23543;SDS011;11950;51.230;4.012;2024-02-26T01:22:56;1.85;;;0.90;;
23543;SDS011;11950;51.230;4.012;2024-02-26T01:25:22;1.65;;;1.10;;
23543;SDS011;11950;51.230;4.012;2024-02-26T01:27:49;2.67;;;1.00;;
23543;SDS011;11950;51.230;4.012;2024-02-26T01:30:15;1.17;;;0.93;;
23543;SDS011;11950;51.230;4.012;2024-02-26T01:32:42;1.45;;;1.10;;
23543;SDS011;11950;51.230;4.012;2024-02-26T01:35:08;1.17;;;1.00;;
23543;SDS011;11950;51.230;4.012;2024-02-26T01:37:37;1.63;;;0.93;;
23543;SDS011;11950;51.230;4.012;2024-02-26T01:40:05;2.58;;;0.90;;
23543;SDS011;11950;51.230;4.012;2024-02-26T01:42:32;1.83;;;0.98;;
23543;SDS011;11950;51.230;4.012;2024-02-26T01:44:59;2.15;;;1.13;;
23543;SDS011;11950;51.230;4.012;2024-02-26T01:47:25;1.40;;;0.95;;
23543;SDS011;11950;51.230;4.012;2024-02-26T01:49:53;2.65;;;1.00;;
23543;SDS011;11950;51.230;4.012;2024-02-26T01:52:19;3.42;;;1.20;;
23543;SDS011;11950;51.230;4.012;2024-02-26T01:54:47;1.85;;;1.08;;
23543;SDS011;11950;51.230;4.012;2024-02-26T01:57:14;2.00;;;0.93;;
23543;SDS011;11950;51.230;4.012;2024-02-26T01:59:42;1.25;;;1.00;;
23543;SDS011;11950;51.230;4.012;2024-02-26T02:02:08;2.05;;;0.90;;
23543;SDS011;11950;51.230;4.012;2024-02-26T02:04:37;1.95;;;1.27;;
23543;SDS011;11950;51.230;4.012;2024-02-26T02:07:04;3.20;;;1.33;;
23543;SDS011;11950;51.230;4.012;2024-02-26T02:09:31;3.75;;;1.27;;
23543;SDS011;11950;51.230;4.012;2024-02-26T02:11:57;1.95;;;1.30;;
23543;SDS011;11950;51.230;4.012;2024-02-26T02:14:24;2.70;;;1.40;;
23543;SDS011;11950;51.230;4.012;2024-02-26T02:16:51;1.40;;;1.20;;
23543;SDS011;11950;51.230;4.012;2024-02-26T02:19:17;2.63;;;1.30;;
23543;SDS011;11950;51.230;4.012;2024-02-26T02:21:44;3.55;;;1.25;;
23543;SDS011;11950;51.230;4.012;2024-02-26T02:24:10;2.45;;;1.30;;
23543;SDS011;11950;51.230;4.012;2024-02-26T02:26:36;1.95;;;1.20;;
23543;SDS011;11950;51.230;4.012;2024-02-26T02:29:03;2.63;;;1.48;;
23543;SDS011;11950;51.230;4.012;2024-02-26T02:31:29;1.88;;;1.30;;
23543;SDS011;11950;51.230;4.012;2024-02-26T02:33:56;2.70;;;1.50;;
23543;SDS011;11950;51.230;4.012;2024-02-26T02:36:23;1.63;;;1.20;;
23543;SDS011;11950;51.230;4.012;2024-02-26T02:38:49;2.53;;;1.50;;
23543;SDS011;11950;51.230;4.012;2024-02-26T02:41:16;3.28;;;1.70;;
23543;SDS011;11950;51.230;4.012;2024-02-26T02:43:43;3.40;;;1.55;;
23543;SDS011;11950;51.230;4.012;2024-02-26T02:46:09;3.45;;;1.95;;
23543;SDS011;11950;51.230;4.012;2024-02-26T02:48:37;2.60;;;2.28;;
23543;SDS011;11950;51.230;4.012;2024-02-26T02:51:04;4.18;;;2.70;;
23543;SDS011;11950;51.230;4.012;2024-02-26T02:53:31;2.60;;;2.40;;
23543;SDS011;11950;51.230;4.012;2024-02-26T02:55:57;2.90;;;2.35;;
23543;SDS011;11950;51.230;4.012;2024-02-26T02:58:23;3.53;;;2.50;;
23543;SDS011;11950;51.230;4.012;2024-02-26T03:00:49;4.53;;;2.53;;
23543;SDS011;11950;51.230;4.012;2024-02-26T03:03:15;5.35;;;3.22;;
23543;SDS011;11950;51.230;4.012;2024-02-26T03:05:42;3.47;;;2.88;;
23543;SDS011;11950;51.230;4.012;2024-02-26T03:08:08;3.67;;;2.88;;
23543;SDS011;11950;51.230;4.012;2024-02-26T03:10:34;4.78;;;2.80;;
23543;SDS011;11950;51.230;4.012;2024-02-26T03:13:01;5.45;;;3.17;;
23543;SDS011;11950;51.230;4.012;2024-02-26T03:15:27;3.17;;;2.88;;
23543;SDS011;11950;51.230;4.012;2024-02-26T03:17:54;5.20;;;3.30;;
23543;SDS011;11950;51.230;4.012;2024-02-26T03:20:20;3.65;;;2.83;;
23543;SDS011;11950;51.230;4.012;2024-02-26T03:22:46;4.10;;;2.72;;
23543;SDS011;11950;51.230;4.012;2024-02-26T03:25:12;3.30;;;2.97;;
23543;SDS011;11950;51.230;4.012;2024-02-26T03:27:38;3.50;;;2.22;;
23543;SDS011;11950;51.230;4.012;2024-02-26T03:30:05;3.20;;;2.90;;
23543;SDS011;11950;51.230;4.012;2024-02-26T03:32:32;4.57;;;2.78;;
23543;SDS011;11950;51.230;4.012;2024-02-26T03:34:58;5.28;;;3.42;;
23543;SDS011;11950;51.230;4.012;2024-02-26T03:37:25;4.72;;;2.60;;
23543;SDS011;11950;51.230;4.012;2024-02-26T03:39:51;2.60;;;2.40;;
23543;SDS011;11950;51.230;4.012;2024-02-26T03:42:18;5.32;;;3.20;;
23543;SDS011;11950;51.230;4.012;2024-02-26T03:44:45;3.78;;;2.60;;
23543;SDS011;11950;51.230;4.012;2024-02-26T03:47:11;2.78;;;2.55;;
23543;SDS011;11950;51.230;4.012;2024-02-26T03:49:38;4.00;;;2.50;;
23543;SDS011;11950;51.230;4.012;2024-02-26T03:52:04;2.97;;;2.65;;
23543;SDS011;11950;51.230;4.012;2024-02-26T03:54:30;4.47;;;2.22;;
23543;SDS011;11950;51.230;4.012;2024-02-26T03:56:57;4.35;;;2.47;;
23543;SDS011;11950;51.230;4.012;2024-02-26T03:59:23;4.07;;;2.75;;
23543;SDS011;11950;51.230;4.012;2024-02-26T04:01:50;3.50;;;2.65;;
23543;SDS011;11950;51.230;4.012;2024-02-26T04:04:17;3.13;;;2.72;;
23543;SDS011;11950;51.230;4.012;2024-02-26T04:06:46;3.35;;;2.22;;
23543;SDS011;11950;51.230;4.012;2024-02-26T04:09:13;2.53;;;2.30;;
23543;SDS011;11950;51.230;4.012;2024-02-26T04:11:40;3.55;;;2.00;;
23543;SDS011;11950;51.230;4.012;2024-02-26T04:14:06;2.58;;;2.03;;
23543;SDS011;11950;51.230;4.012;2024-02-26T04:16:34;3.55;;;1.90;;
23543;SDS011;11950;51.230;4.012;2024-02-26T04:19:04;2.60;;;1.92;;
23543;SDS011;11950;51.230;4.012;2024-02-26T04:21:30;2.60;;;1.90;;
23543;SDS011;11950;51.230;4.012;2024-02-26T04:23:56;3.95;;;2.25;;
23543;SDS011;11950;51.230;4.012;2024-02-26T04:26:26;2.80;;;2.00;;
23543;SDS011;11950;51.230;4.012;2024-02-26T04:28:53;3.20;;;1.85;;
23543;SDS011;11950;51.230;4.012;2024-02-26T04:31:19;2.17;;;1.98;;
23543;SDS011;11950;51.230;4.012;2024-02-26T04:33:45;1.63;;;1.52;;
23543;SDS011;11950;51.230;4.012;2024-02-26T04:36:12;2.13;;;1.92;;
23543;SDS011;11950;51.230;4.012;2024-02-26T04:38:40;3.55;;;1.88;;
23543;SDS011;11950;51.230;4.012;2024-02-26T04:41:07;3.25;;;2.10;;
23543;SDS011;11950;51.230;4.012;2024-02-26T04:43:33;3.90;;;2.22;;
23543;SDS011;11950;51.230;4.012;2024-02-26T04:45:59;2.78;;;2.10;;
23543;SDS011;11950;51.230;4.012;2024-02-26T04:48:27;2.92;;;1.80;;
23543;SDS011;11950;51.230;4.012;2024-02-26T04:50:53;2.50;;;2.00;;
23543;SDS011;11950;51.230;4.012;2024-02-26T04:53:20;3.20;;;1.90;;
23543;SDS011;11950;51.230;4.012;2024-02-26T04:55:46;3.50;;;2.10;;
23543;SDS011;11950;51.230;4.012;2024-02-26T04:58:12;3.40;;;2.22;;
23543;SDS011;11950;51.230;4.012;2024-02-26T05:00:38;4.57;;;2.90;;
23543;SDS011;11950;51.230;4.012;2024-02-26T05:03:05;3.28;;;2.20;;
23543;SDS011;11950;51.230;4.012;2024-02-26T05:05:31;4.15;;;2.50;;
23543;SDS011;11950;51.230;4.012;2024-02-26T05:07:57;3.20;;;2.53;;
23543;SDS011;11950;51.230;4.012;2024-02-26T05:10:24;3.08;;;2.63;;
23543;SDS011;11950;51.230;4.012;2024-02-26T05:12:51;3.88;;;2.63;;
23543;SDS011;11950;51.230;4.012;2024-02-26T05:15:17;4.95;;;3.00;;
23543;SDS011;11950;51.230;4.012;2024-02-26T05:17:44;3.40;;;2.53;;
23543;SDS011;11950;51.230;4.012;2024-02-26T05:20:10;3.22;;;2.88;;
23543;SDS011;11950;51.230;4.012;2024-02-26T05:22:37;3.40;;;3.10;;
23543;SDS011;11950;51.230;4.012;2024-02-26T05:25:03;3.53;;;2.70;;
23543;SDS011;11950;51.230;4.012;2024-02-26T05:27:30;5.15;;;2.90;;
23543;SDS011;11950;51.230;4.012;2024-02-26T05:29:56;3.42;;;2.97;;
23543;SDS011;11950;51.230;4.012;2024-02-26T05:32:22;3.72;;;2.80;;
23543;SDS011;11950;51.230;4.012;2024-02-26T05:34:48;2.85;;;2.38;;
23543;SDS011;11950;51.230;4.012;2024-02-26T05:37:14;3.60;;;2.78;;
23543;SDS011;11950;51.230;4.012;2024-02-26T05:39:41;4.20;;;2.75;;
23543;SDS011;11950;51.230;4.012;2024-02-26T05:42:07;3.58;;;3.25;;
23543;SDS011;11950;51.230;4.012;2024-02-26T05:44:34;2.78;;;2.45;;
23543;SDS011;11950;51.230;4.012;2024-02-26T05:47:00;4.70;;;3.38;;
23543;SDS011;11950;51.230;4.012;2024-02-26T05:49:27;6.28;;;3.72;;
23543;SDS011;11950;51.230;4.012;2024-02-26T05:51:53;3.13;;;2.88;;
23543;SDS011;11950;51.230;4.012;2024-02-26T05:54:19;3.88;;;3.53;;
23543;SDS011;11950;51.230;4.012;2024-02-26T05:56:46;4.13;;;3.72;;
23543;SDS011;11950;51.230;4.012;2024-02-26T05:59:12;4.60;;;3.80;;
23543;SDS011;11950;51.230;4.012;2024-02-26T06:01:41;4.20;;;3.33;;
23543;SDS011;11950;51.230;4.012;2024-02-26T06:04:07;4.25;;;3.63;;
23543;SDS011;11950;51.230;4.012;2024-02-26T06:06:33;3.92;;;3.30;;
23543;SDS011;11950;51.230;4.012;2024-02-26T06:08:59;4.78;;;3.47;;
23543;SDS011;11950;51.230;4.012;2024-02-26T06:11:26;4.88;;;3.40;;
23543;SDS011;11950;51.230;4.012;2024-02-26T06:13:53;3.55;;;3.00;;
23543;SDS011;11950;51.230;4.012;2024-02-26T06:16:19;3.30;;;3.00;;
23543;SDS011;11950;51.230;4.012;2024-02-26T06:18:45;3.17;;;2.90;;
23543;SDS011;11950;51.230;4.012;2024-02-26T06:21:11;3.60;;;2.78;;
23543;SDS011;11950;51.230;4.012;2024-02-26T06:23:38;2.67;;;2.47;;
23543;SDS011;11950;51.230;4.012;2024-02-26T06:26:05;3.60;;;3.25;;
23543;SDS011;11950;51.230;4.012;2024-02-26T06:28:32;3.38;;;3.08;;
23543;SDS011;11950;51.230;4.012;2024-02-26T06:30:59;3.08;;;2.58;;
23543;SDS011;11950;51.230;4.012;2024-02-26T06:33:25;3.17;;;2.58;;
23543;SDS011;11950;51.230;4.012;2024-02-26T06:35:51;2.78;;;2.40;;
23543;SDS011;11950;51.230;4.012;2024-02-26T06:38:18;2.83;;;2.60;;
23543;SDS011;11950;51.230;4.012;2024-02-26T06:40:44;3.58;;;2.53;;
23543;SDS011;11950;51.230;4.012;2024-02-26T06:43:11;2.85;;;2.60;;
23543;SDS011;11950;51.230;4.012;2024-02-26T06:45:37;3.05;;;2.65;;
23543;SDS011;11950;51.230;4.012;2024-02-26T06:48:04;4.05;;;2.70;;
23543;SDS011;11950;51.230;4.012;2024-02-26T06:50:30;3.10;;;2.80;;
23543;SDS011;11950;51.230;4.012;2024-02-26T06:52:57;3.05;;;2.60;;
23543;SDS011;11950;51.230;4.012;2024-02-26T06:55:23;2.92;;;2.67;;
23543;SDS011;11950;51.230;4.012;2024-02-26T06:57:49;2.97;;;2.67;;
23543;SDS011;11950;51.230;4.012;2024-02-26T07:00:15;3.22;;;2.90;;
23543;SDS011;11950;51.230;4.012;2024-02-26T07:02:42;3.65;;;3.03;;
23543;SDS011;11950;51.230;4.012;2024-02-26T07:05:09;2.97;;;2.67;;
23543;SDS011;11950;51.230;4.012;2024-02-26T07:07:35;3.90;;;3.10;;
23543;SDS011;11950;51.230;4.012;2024-02-26T07:10:01;3.80;;;2.55;;
23543;SDS011;11950;51.230;4.012;2024-02-26T07:12:31;2.85;;;2.55;;
23543;SDS011;11950;51.230;4.012;2024-02-26T07:14:57;5.18;;;3.05;;
23543;SDS011;11950;51.230;4.012;2024-02-26T07:17:24;4.45;;;2.67;;
23543;SDS011;11950;51.230;4.012;2024-02-26T07:19:50;3.13;;;2.83;;
23543;SDS011;11950;51.230;4.012;2024-02-26T07:22:16;5.72;;;2.60;;
23543;SDS011;11950;51.230;4.012;2024-02-26T07:24:42;3.15;;;2.85;;
23543;SDS011;11950;51.230;4.012;2024-02-26T07:27:09;3.47;;;2.60;;
23543;SDS011;11950;51.230;4.012;2024-02-26T07:29:35;3.00;;;2.70;;
23543;SDS011;11950;51.230;4.012;2024-02-26T07:32:01;2.60;;;2.30;;
23543;SDS011;11950;51.230;4.012;2024-02-26T07:34:27;4.00;;;2.40;;
23543;SDS011;11950;51.230;4.012;2024-02-26T07:36:55;3.03;;;2.70;;
23543;SDS011;11950;51.230;4.012;2024-02-26T07:39:22;3.22;;;2.40;;
23543;SDS011;11950;51.230;4.012;2024-02-26T07:41:48;3.47;;;2.55;;
23543;SDS011;11950;51.230;4.012;2024-02-26T07:44:17;2.78;;;2.30;;
23543;SDS011;11950;51.230;4.012;2024-02-26T07:46:44;2.80;;;2.30;;
23543;SDS011;11950;51.230;4.012;2024-02-26T07:49:10;2.80;;;2.45;;
23543;SDS011;11950;51.230;4.012;2024-02-26T07:51:37;3.33;;;2.55;;
23543;SDS011;11950;51.230;4.012;2024-02-26T07:54:03;4.15;;;2.85;;
23543;SDS011;11950;51.230;4.012;2024-02-26T07:56:29;5.82;;;2.60;;
23543;SDS011;11950;51.230;4.012;2024-02-26T07:58:55;2.80;;;2.50;;
23543;SDS011;11950;51.230;4.012;2024-02-26T08:01:21;5.63;;;2.55;;
23543;SDS011;11950;51.230;4.012;2024-02-26T08:03:48;4.25;;;2.50;;
23543;SDS011;11950;51.230;4.012;2024-02-26T08:06:16;4.05;;;2.67;;
23543;SDS011;11950;51.230;4.012;2024-02-26T08:08:42;3.92;;;2.67;;
23543;SDS011;11950;51.230;4.012;2024-02-26T08:11:09;2.60;;;2.17;;
23543;SDS011;11950;51.230;4.012;2024-02-26T08:13:35;3.17;;;2.38;;
23543;SDS011;11950;51.230;4.012;2024-02-26T08:16:02;4.32;;;2.50;;
23543;SDS011;11950;51.230;4.012;2024-02-26T08:18:28;3.80;;;2.35;;
23543;SDS011;11950;51.230;4.012;2024-02-26T08:20:54;2.55;;;2.35;;
23543;SDS011;11950;51.230;4.012;2024-02-26T08:23:21;3.55;;;2.38;;
23543;SDS011;11950;51.230;4.012;2024-02-26T08:25:48;3.85;;;2.70;;
23543;SDS011;11950;51.230;4.012;2024-02-26T08:28:14;3.22;;;2.60;;
23543;SDS011;11950;51.230;4.012;2024-02-26T08:30:43;2.90;;;2.58;;
23543;SDS011;11950;51.230;4.012;2024-02-26T08:33:10;3.42;;;2.65;;
23543;SDS011;11950;51.230;4.012;2024-02-26T08:35:37;4.13;;;2.78;;
23543;SDS011;11950;51.230;4.012;2024-02-26T08:38:03;3.70;;;2.42;;
23543;SDS011;11950;51.230;4.012;2024-02-26T08:40:29;4.05;;;2.80;;
23543;SDS011;11950;51.230;4.012;2024-02-26T08:42:56;3.75;;;3.00;;
23543;SDS011;11950;51.230;4.012;2024-02-26T08:45:23;3.75;;;3.08;;
23543;SDS011;11950;51.230;4.012;2024-02-26T08:47:50;5.95;;;3.30;;
23543;SDS011;11950;51.230;4.012;2024-02-26T08:50:16;4.88;;;3.00;;
23543;SDS011;11950;51.230;4.012;2024-02-26T08:52:42;4.32;;;3.10;;
23543;SDS011;11950;51.230;4.012;2024-02-26T08:55:09;4.63;;;3.28;;
23543;SDS011;11950;51.230;4.012;2024-02-26T08:57:35;3.75;;;3.20;;
23543;SDS011;11950;51.230;4.012;2024-02-26T09:00:01;4.38;;;3.35;;
23543;SDS011;11950;51.230;4.012;2024-02-26T09:02:27;5.25;;;3.25;;
23543;SDS011;11950;51.230;4.012;2024-02-26T09:04:54;4.93;;;3.85;;
23543;SDS011;11950;51.230;4.012;2024-02-26T09:07:21;5.38;;;3.45;;
23543;SDS011;11950;51.230;4.012;2024-02-26T09:09:48;5.95;;;3.80;;
23543;SDS011;11950;51.230;4.012;2024-02-26T09:12:14;5.45;;;3.80;;
23543;SDS011;11950;51.230;4.012;2024-02-26T09:14:40;4.68;;;3.50;;
23543;SDS011;11950;51.230;4.012;2024-02-26T09:17:06;5.38;;;4.28;;
23543;SDS011;11950;51.230;4.012;2024-02-26T09:19:33;6.05;;;4.10;;
23543;SDS011;11950;51.230;4.012;2024-02-26T09:21:59;6.68;;;4.80;;
23543;SDS011;11950;51.230;4.012;2024-02-26T09:24:25;6.20;;;4.63;;
23543;SDS011;11950;51.230;4.012;2024-02-26T09:26:52;6.45;;;4.53;;
23543;SDS011;11950;51.230;4.012;2024-02-26T09:29:18;6.68;;;5.13;;
23543;SDS011;11950;51.230;4.012;2024-02-26T09:31:44;6.15;;;4.90;;
23543;SDS011;11950;51.230;4.012;2024-02-26T09:34:13;7.13;;;4.47;;
23543;SDS011;11950;51.230;4.012;2024-02-26T09:36:39;6.25;;;4.78;;
23543;SDS011;11950;51.230;4.012;2024-02-26T09:39:05;6.82;;;4.55;;
23543;SDS011;11950;51.230;4.012;2024-02-26T09:41:36;7.85;;;5.15;;
23543;SDS011;11950;51.230;4.012;2024-02-26T09:44:03;8.35;;;5.65;;
23543;SDS011;11950;51.230;4.012;2024-02-26T09:46:31;8.00;;;5.25;;
23543;SDS011;11950;51.230;4.012;2024-02-26T09:48:57;8.73;;;5.57;;
23543;SDS011;11950;51.230;4.012;2024-02-26T09:51:24;10.35;;;5.45;;
23543;SDS011;11950;51.230;4.012;2024-02-26T09:53:51;8.45;;;5.32;;
23543;SDS011;11950;51.230;4.012;2024-02-26T09:56:18;8.07;;;5.78;;
23543;SDS011;11950;51.230;4.012;2024-02-26T09:58:45;10.10;;;5.97;;
23543;SDS011;11950;51.230;4.012;2024-02-26T10:01:16;9.32;;;5.72;;
23543;SDS011;11950;51.230;4.012;2024-02-26T10:03:44;9.05;;;5.55;;
23543;SDS011;11950;51.230;4.012;2024-02-26T10:06:13;9.60;;;5.53;;
23543;SDS011;11950;51.230;4.012;2024-02-26T10:08:39;11.40;;;5.93;;
23543;SDS011;11950;51.230;4.012;2024-02-26T10:11:07;8.48;;;5.65;;
23543;SDS011;11950;51.230;4.012;2024-02-26T10:13:36;9.55;;;5.97;;
23543;SDS011;11950;51.230;4.012;2024-02-26T10:16:03;8.80;;;5.57;;
23543;SDS011;11950;51.230;4.012;2024-02-26T10:18:47;9.55;;;5.90;;
23543;SDS011;11950;51.230;4.012;2024-02-26T10:21:18;9.00;;;5.57;;
23543;SDS011;11950;51.230;4.012;2024-02-26T10:23:46;6.38;;;3.88;;
23543;SDS011;11950;51.230;4.012;2024-02-26T10:26:19;8.40;;;5.20;;
23543;SDS011;11950;51.230;4.012;2024-02-26T10:28:46;9.48;;;5.90;;
23543;SDS011;11950;51.230;4.012;2024-02-26T10:31:15;10.32;;;6.07;;
23543;SDS011;11950;51.230;4.012;2024-02-26T10:33:42;8.18;;;6.10;;
23543;SDS011;11950;51.230;4.012;2024-02-26T10:36:10;11.85;;;6.25;;
23543;SDS011;11950;51.230;4.012;2024-02-26T10:38:37;9.60;;;6.22;;
23543;SDS011;11950;51.230;4.012;2024-02-26T10:41:06;13.63;;;7.70;;
23543;SDS011;11950;51.230;4.012;2024-02-26T10:43:38;14.52;;;8.30;;
23543;SDS011;11950;51.230;4.012;2024-02-26T10:46:04;13.55;;;7.80;;
23543;SDS011;11950;51.230;4.012;2024-02-26T10:48:30;15.02;;;8.80;;
23543;SDS011;11950;51.230;4.012;2024-02-26T10:50:57;11.85;;;7.20;;
23543;SDS011;11950;51.230;4.012;2024-02-26T10:53:26;13.90;;;8.55;;
23543;SDS011;11950;51.230;4.012;2024-02-26T10:56:01;15.32;;;7.90;;
23543;SDS011;11950;51.230;4.012;2024-02-26T10:58:29;14.00;;;8.77;;
23543;SDS011;11950;51.230;4.012;2024-02-26T11:00:56;16.02;;;9.00;;
23543;SDS011;11950;51.230;4.012;2024-02-26T11:03:24;14.57;;;8.43;;
23543;SDS011;11950;51.230;4.012;2024-02-26T11:05:51;16.63;;;8.57;;
23543;SDS011;11950;51.230;4.012;2024-02-26T11:08:18;16.55;;;9.10;;
23543;SDS011;11950;51.230;4.012;2024-02-26T11:10:48;13.02;;;8.45;;
23543;SDS011;11950;51.230;4.012;2024-02-26T11:13:18;13.05;;;7.90;;
23543;SDS011;11950;51.230;4.012;2024-02-26T11:15:46;12.82;;;8.05;;
23543;SDS011;11950;51.230;4.012;2024-02-26T11:18:17;11.80;;;7.53;;
23543;SDS011;11950;51.230;4.012;2024-02-26T11:20:45;11.35;;;7.82;;
23543;SDS011;11950;51.230;4.012;2024-02-26T11:23:13;11.27;;;6.88;;
23543;SDS011;11950;51.230;4.012;2024-02-26T11:25:41;11.77;;;7.10;;
23543;SDS011;11950;51.230;4.012;2024-02-26T11:28:12;9.82;;;6.57;;
23543;SDS011;11950;51.230;4.012;2024-02-26T11:30:42;11.05;;;6.60;;
23543;SDS011;11950;51.230;4.012;2024-02-26T11:33:11;8.68;;;5.85;;
23543;SDS011;11950;51.230;4.012;2024-02-26T11:35:39;8.73;;;6.10;;
23543;SDS011;11950;51.230;4.012;2024-02-26T11:38:06;8.90;;;5.47;;
23543;SDS011;11950;51.230;4.012;2024-02-26T11:40:33;9.60;;;5.85;;
23543;SDS011;11950;51.230;4.012;2024-02-26T11:43:05;7.75;;;5.43;;
23543;SDS011;11950;51.230;4.012;2024-02-26T11:48:19;6.63;;;4.80;;
23543;SDS011;11950;51.230;4.012;2024-02-26T11:50:47;8.05;;;5.57;;
23543;SDS011;11950;51.230;4.012;2024-02-26T11:53:28;8.35;;;5.57;;
23543;SDS011;11950;51.230;4.012;2024-02-26T11:59:04;9.05;;;5.47;;
23543;SDS011;11950;51.230;4.012;2024-02-26T12:01:41;9.07;;;5.85;;
23543;SDS011;11950;51.230;4.012;2024-02-26T12:06:41;7.55;;;4.93;;
23543;SDS011;11950;51.230;4.012;2024-02-26T12:09:08;5.93;;;4.18;;
23543;SDS011;11950;51.230;4.012;2024-02-26T12:11:37;6.63;;;4.80;;
23543;SDS011;11950;51.230;4.012;2024-02-26T12:14:05;5.50;;;4.70;;
23543;SDS011;11950;51.230;4.012;2024-02-26T12:16:40;6.03;;;4.13;;
23543;SDS011;11950;51.230;4.012;2024-02-26T12:19:10;7.60;;;4.63;;
23543;SDS011;11950;51.230;4.012;2024-02-26T12:21:37;5.95;;;4.07;;
23543;SDS011;11950;51.230;4.012;2024-02-26T12:24:10;17.75;;;10.43;;
23543;SDS011;11950;51.230;4.012;2024-02-26T12:26:38;7.95;;;4.80;;
23543;SDS011;11950;51.230;4.012;2024-02-26T12:29:05;39.15;;;17.77;;
23543;SDS011;11950;51.230;4.012;2024-02-26T12:31:32;9.88;;;5.93;;
23543;SDS011;11950;51.230;4.012;2024-02-26T12:33:59;13.20;;;6.40;;
23543;SDS011;11950;51.230;4.012;2024-02-26T12:36:26;11.43;;;6.55;;
23543;SDS011;11950;51.230;4.012;2024-02-26T12:38:53;10.20;;;5.90;;
23543;SDS011;11950;51.230;4.012;2024-02-26T12:41:20;6.35;;;4.03;;
23543;SDS011;11950;51.230;4.012;2024-02-26T12:43:46;4.93;;;3.75;;
23543;SDS011;11950;51.230;4.012;2024-02-26T12:46:12;4.75;;;3.40;;
23543;SDS011;11950;51.230;4.012;2024-02-26T12:48:44;4.88;;;3.88;;
23543;SDS011;11950;51.230;4.012;2024-02-26T12:51:11;4.82;;;3.80;;
23543;SDS011;11950;51.230;4.012;2024-02-26T12:53:40;3.55;;;2.95;;
23543;SDS011;11950;51.230;4.012;2024-02-26T12:56:07;3.47;;;2.80;;
23543;SDS011;11950;51.230;4.012;2024-02-26T12:58:35;3.90;;;3.45;;
23543;SDS011;11950;51.230;4.012;2024-02-26T13:01:04;3.78;;;3.30;;
23543;SDS011;11950;51.230;4.012;2024-02-26T13:03:34;4.22;;;3.30;;
23543;SDS011;11950;51.230;4.012;2024-02-26T13:06:02;5.68;;;3.65;;
23543;SDS011;11950;51.230;4.012;2024-02-26T13:08:31;3.38;;;3.03;;
23543;SDS011;11950;51.230;4.012;2024-02-26T13:10:58;5.97;;;4.03;;
23543;SDS011;11950;51.230;4.012;2024-02-26T13:13:25;4.43;;;3.72;;
23543;SDS011;11950;51.230;4.012;2024-02-26T13:16:09;3.42;;;3.10;;
23543;SDS011;11950;51.230;4.012;2024-02-26T13:18:40;6.10;;;4.05;;
23543;SDS011;11950;51.230;4.012;2024-02-26T13:21:07;4.15;;;3.35;;
23543;SDS011;11950;51.230;4.012;2024-02-26T13:23:35;5.68;;;4.22;;
23543;SDS011;11950;51.230;4.012;2024-02-26T13:26:03;5.47;;;4.15;;
23543;SDS011;11950;51.230;4.012;2024-02-26T13:28:29;3.67;;;3.17;;
23543;SDS011;11950;51.230;4.012;2024-02-26T13:30:56;4.60;;;3.70;;
23543;SDS011;11950;51.230;4.012;2024-02-26T13:33:24;5.20;;;3.53;;
23543;SDS011;11950;51.230;4.012;2024-02-26T13:35:51;4.38;;;3.55;;
23543;SDS011;11950;51.230;4.012;2024-02-26T13:38:18;5.35;;;3.60;;
23543;SDS011;11950;51.230;4.012;2024-02-26T13:40:45;5.70;;;3.60;;
23543;SDS011;11950;51.230;4.012;2024-02-26T13:43:11;5.43;;;3.50;;
23543;SDS011;11950;51.230;4.012;2024-02-26T13:45:38;4.95;;;3.30;;
23543;SDS011;11950;51.230;4.012;2024-02-26T13:48:05;4.88;;;3.65;;
23543;SDS011;11950;51.230;4.012;2024-02-26T13:50:32;4.60;;;2.95;;
23543;SDS011;11950;51.230;4.012;2024-02-26T13:52:59;3.80;;;3.30;;
23543;SDS011;11950;51.230;4.012;2024-02-26T13:55:25;3.88;;;3.20;;
23543;SDS011;11950;51.230;4.012;2024-02-26T13:57:54;3.47;;;3.13;;
23543;SDS011;11950;51.230;4.012;2024-02-26T14:00:24;5.72;;;3.42;;
23543;SDS011;11950;51.230;4.012;2024-02-26T14:02:54;3.40;;;3.10;;
23543;SDS011;11950;51.230;4.012;2024-02-26T14:05:20;3.47;;;3.10;;
23543;SDS011;11950;51.230;4.012;2024-02-26T14:07:55;3.83;;;3.17;;
23543;SDS011;11950;51.230;4.012;2024-02-26T14:10:22;5.35;;;3.70;;
23543;SDS011;11950;51.230;4.012;2024-02-26T14:12:48;4.00;;;3.60;;
23543;SDS011;11950;51.230;4.012;2024-02-26T14:15:15;5.53;;;3.38;;
23543;SDS011;11950;51.230;4.012;2024-02-26T14:17:41;4.22;;;3.47;;
23543;SDS011;11950;51.230;4.012;2024-02-26T14:20:08;4.90;;;3.40;;
23543;SDS011;11950;51.230;4.012;2024-02-26T14:22:38;5.70;;;3.88;;
23543;SDS011;11950;51.230;4.012;2024-02-26T14:25:04;5.50;;;3.72;;
23543;SDS011;11950;51.230;4.012;2024-02-26T14:27:30;3.42;;;3.13;;
23543;SDS011;11950;51.230;4.012;2024-02-26T14:29:57;4.03;;;3.63;;
23543;SDS011;11950;51.230;4.012;2024-02-26T14:32:23;4.07;;;3.70;;
23543;SDS011;11950;51.230;4.012;2024-02-26T14:34:49;8.73;;;3.58;;
23543;SDS011;11950;51.230;4.012;2024-02-26T14:37:15;5.65;;;4.32;;
23543;SDS011;11950;51.230;4.012;2024-02-26T14:39:45;5.85;;;4.03;;
23543;SDS011;11950;51.230;4.012;2024-02-26T14:42:13;4.40;;;3.63;;
23543;SDS011;11950;51.230;4.012;2024-02-26T14:44:43;5.90;;;4.10;;
23543;SDS011;11950;51.230;4.012;2024-02-26T14:47:09;5.07;;;4.10;;
23543;SDS011;11950;51.230;4.012;2024-02-26T14:49:36;5.45;;;4.22;;
23543;SDS011;11950;51.230;4.012;2024-02-26T14:52:03;6.30;;;4.35;;